CST,Max TemperatureF,Mean TemperatureF,Min TemperatureF,Max Dew PointF,MeanDew PointF,Min DewpointF,Max Humidity, Mean Humidity, Min Humidity, Max Sea Level PressureIn, Mean Sea Level PressureIn, Min Sea Level PressureIn, Max VisibilityMiles, Mean VisibilityMiles, Min VisibilityMiles, Max Wind SpeedMPH, Mean Wind SpeedMPH, Max Gust SpeedMPH,PrecipitationIn, CloudCover, Events, WindDirDegrees
2014-2-1,25,16,1,18,13,-3,89,77,53,30.37,30.08,29.94,10,7,2,25,6,30,0.00,5,Snow,327
2014-2-2,30,12,-6,10,1,-12,84,66,41,30.44,30.35,30.27,10,10,10,13,6,,0.00,0,,199
2014-2-3,35,18,1,13,7,-5,80,61,40,30.30,30.26,30.22,10,10,9,14,9,,0.00,4,,161
2014-2-4,24,14,3,13,7,-3,80,72,57,30.51,30.34,30.27,10,4,0,30,14,37,0.00,8,Snow,16
2014-2-5,10,2,-7,-3,-5,-14,76,67,51,30.72,30.61,30.46,10,7,2,31,23,39,0.00,5,Snow,334
2014-2-6,10,1,-8,-2,-10,-15,72,65,53,30.70,30.59,30.47,10,10,10,14,9,,0.00,1,,269
2014-2-7,18,5,-8,6,-2,-13,80,67,52,30.44,30.32,30.20,10,10,10,20,9,,0.00,4,,191
2014-2-8,26,19,12,18,12,6,85,74,58,30.27,30.13,30.04,10,6,0,15,10,,0.00,8,Snow,326
2014-2-9,16,7,-2,8,-1,-8,84,68,51,30.53,30.41,30.30,10,10,7,20,11,,0.00,3,,343
2014-2-10,14,2,-11,3,-6,-18,80,68,52,30.60,30.55,30.52,10,10,10,8,4,,0.00,3,,222
2014-2-11,21,11,1,11,4,-5,76,66,57,30.51,30.32,30.12,10,10,10,22,12,,0.00,6,,167
2014-2-12,28,22,16,21,16,9,86,76,65,30.16,30.05,29.85,10,6,1,23,12,,0.00,7,Snow,123
2014-2-13,51,36,21,31,23,13,81,62,39,29.81,29.74,29.70,10,10,7,23,14,30,0.00,3,,305
2014-2-14,28,20,12,17,10,3,82,65,41,30.15,29.96,29.69,10,9,2,24,13,28,0.00,5,Snow,359
2014-2-15,61,38,14,31,21,6,78,63,24,30.10,29.93,29.73,10,9,2,37,14,47,0.00,4,Snow,204
2014-2-16,34,26,19,23,19,13,78,71,61,30.20,30.06,29.90,10,10,4,23,14,28,0.00,5,,103
2014-2-17,54,39,24,32,25,17,92,71,26,29.91,29.85,29.79,10,7,0,29,12,39,0.08,4,Fog-Rain-Snow,211
2014-2-18,66,46,26,29,24,19,75,47,20,29.94,29.73,29.61,10,10,10,30,13,43,0.00,0,,257
2014-2-19,54,36,19,28,23,16,89,57,23,29.95,29.81,29.59,10,10,10,24,10,,0.00,1,,179
2014-2-20,42,34,25,34,28,15,100,79,59,29.75,29.59,29.52,10,6,0,33,16,44,0.19,8,Fog-Rain-Snow,322
2014-2-21,45,32,18,26,19,11,85,65,46,29.91,29.82,29.77,10,10,10,15,8,20,0.00,1,,286
2014-2-22,39,31,23,24,16,10,89,60,32,30.24,30.06,29.92,10,10,10,15,8,,0.00,2,,360
2014-2-23,32,25,18,12,8,4,71,52,32,30.41,30.36,30.27,10,10,10,15,9,,0.00,2,,343
2014-2-24,24,22,19,19,16,10,88,79,60,30.42,30.31,30.23,10,4,1,14,7,,0.04,8,Snow,95
2014-2-25,19,11,-2,14,2,-10,81,68,59,30.56,30.47,30.35,10,9,4,23,13,28,0.00,4,Snow,336
2014-2-26,32,12,-9,17,3,-16,76,65,52,30.55,30.19,29.93,10,10,10,22,11,29,0.00,0,,261
2014-2-27,15,8,0,3,-5,-12,69,55,40,30.27,30.14,29.96,10,10,10,17,11,,0.00,1,,64
2014-2-28,33,22,10,21,15,-1,86,72,49,30.20,29.97,29.83,10,5,0,25,13,30,0.02,7,Fog-Snow,347